sensor_id;sensor_type;location;lat;lon;timestamp;P1;durP1;ratioP1;P2;durP2;ratioP2
73951;SDS011;62304;47.662;18.324;2022-09-01T00:00:34;9.10;;;5.45;;
73951;SDS011;62304;47.662;18.324;2022-09-01T00:03:39;8.07;;;5.43;;
73951;SDS011;62304;47.662;18.324;2022-09-01T00:06:43;9.13;;;5.90;;
73951;SDS011;62304;47.662;18.324;2022-09-01T00:09:46;9.83;;;6.00;;
73951;SDS011;62304;47.662;18.324;2022-09-01T00:12:49;11.35;;;6.35;;
73951;SDS011;62304;47.662;18.324;2022-09-01T00:15:52;11.88;;;6.60;;
73951;SDS011;62304;47.662;18.324;2022-09-01T00:18:56;10.35;;;6.10;;
73951;SDS011;62304;47.662;18.324;2022-09-01T00:21:59;9.40;;;6.20;;
73951;SDS011;62304;47.662;18.324;2022-09-01T00:25:02;9.27;;;6.40;;
73951;SDS011;62304;47.662;18.324;2022-09-01T00:28:07;9.88;;;5.62;;
73951;SDS011;62304;47.662;18.324;2022-09-01T00:31:10;10.73;;;6.47;;
73951;SDS011;62304;47.662;18.324;2022-09-01T00:34:13;11.12;;;6.47;;
73951;SDS011;62304;47.662;18.324;2022-09-01T00:37:16;9.90;;;6.63;;
73951;SDS011;62304;47.662;18.324;2022-09-01T00:40:19;11.33;;;7.20;;
73951;SDS011;62304;47.662;18.324;2022-09-01T00:46:44;10.05;;;6.07;;
73951;SDS011;62304;47.662;18.324;2022-09-01T00:49:56;10.55;;;6.32;;
73951;SDS011;62304;47.662;18.324;2022-09-01T00:53:01;12.23;;;6.80;;
73951;SDS011;62304;47.662;18.324;2022-09-01T00:56:05;10.80;;;5.90;;
73951;SDS011;62304;47.662;18.324;2022-09-01T00:59:09;11.82;;;5.95;;
73951;SDS011;62304;47.662;18.324;2022-09-01T01:02:15;10.13;;;5.70;;
73951;SDS011;62304;47.662;18.324;2022-09-01T01:05:22;11.40;;;5.97;;
73951;SDS011;62304;47.662;18.324;2022-09-01T01:08:30;10.63;;;5.90;;
73951;SDS011;62304;47.662;18.324;2022-09-01T01:11:36;9.87;;;5.60;;
73951;SDS011;62304;47.662;18.324;2022-09-01T01:14:40;9.13;;;5.10;;
73951;SDS011;62304;47.662;18.324;2022-09-01T01:17:47;9.45;;;5.03;;
73951;SDS011;62304;47.662;18.324;2022-09-01T01:21:01;10.20;;;5.15;;
73951;SDS011;62304;47.662;18.324;2022-09-01T01:24:32;10.07;;;5.33;;
73951;SDS011;62304;47.662;18.324;2022-09-01T01:27:37;8.73;;;5.37;;
73951;SDS011;62304;47.662;18.324;2022-09-01T01:30:46;9.90;;;4.95;;
73951;SDS011;62304;47.662;18.324;2022-09-01T01:33:55;11.65;;;5.57;;
73951;SDS011;62304;47.662;18.324;2022-09-01T01:37:00;9.55;;;4.80;;
73951;SDS011;62304;47.662;18.324;2022-09-01T01:40:03;8.90;;;5.07;;
73951;SDS011;62304;47.662;18.324;2022-09-01T01:43:07;10.57;;;4.20;;
73951;SDS011;62304;47.662;18.324;2022-09-01T01:46:13;8.88;;;4.37;;
73951;SDS011;62304;47.662;18.324;2022-09-01T01:49:22;8.15;;;3.83;;
73951;SDS011;62304;47.662;18.324;2022-09-01T01:52:30;6.90;;;4.15;;
73951;SDS011;62304;47.662;18.324;2022-09-01T01:55:35;8.77;;;4.70;;
73951;SDS011;62304;47.662;18.324;2022-09-01T01:58:38;8.43;;;4.10;;
73951;SDS011;62304;47.662;18.324;2022-09-01T02:01:44;7.97;;;4.18;;
73951;SDS011;62304;47.662;18.324;2022-09-01T02:04:50;9.13;;;3.90;;
73951;SDS011;62304;47.662;18.324;2022-09-01T02:07:55;6.57;;;3.75;;
73951;SDS011;62304;47.662;18.324;2022-09-01T02:11:06;6.57;;;2.63;;
73951;SDS011;62304;47.662;18.324;2022-09-01T02:14:10;5.20;;;2.50;;
73951;SDS011;62304;47.662;18.324;2022-09-01T02:17:15;5.07;;;2.53;;
73951;SDS011;62304;47.662;18.324;2022-09-01T02:20:19;7.87;;;2.90;;
73951;SDS011;62304;47.662;18.324;2022-09-01T02:23:23;7.22;;;3.72;;
73951;SDS011;62304;47.662;18.324;2022-09-01T02:26:27;7.27;;;3.20;;
73951;SDS011;62304;47.662;18.324;2022-09-01T02:29:33;7.03;;;2.90;;
73951;SDS011;62304;47.662;18.324;2022-09-01T02:32:44;7.05;;;3.08;;
73951;SDS011;62304;47.662;18.324;2022-09-01T02:35:50;8.20;;;3.70;;
73951;SDS011;62304;47.662;18.324;2022-09-01T02:38:55;5.85;;;2.90;;
73951;SDS011;62304;47.662;18.324;2022-09-01T02:42:01;10.70;;;3.10;;
73951;SDS011;62304;47.662;18.324;2022-09-01T02:45:04;6.67;;;3.40;;
73951;SDS011;62304;47.662;18.324;2022-09-01T02:48:17;7.03;;;3.28;;
73951;SDS011;62304;47.662;18.324;2022-09-01T02:51:21;5.75;;;3.35;;
73951;SDS011;62304;47.662;18.324;2022-09-01T02:54:29;6.57;;;3.25;;
73951;SDS011;62304;47.662;18.324;2022-09-01T02:57:34;8.43;;;2.90;;
73951;SDS011;62304;47.662;18.324;2022-09-01T03:00:37;7.07;;;3.77;;
73951;SDS011;62304;47.662;18.324;2022-09-01T03:03:40;8.15;;;3.80;;
73951;SDS011;62304;47.662;18.324;2022-09-01T03:06:44;7.30;;;3.90;;
73951;SDS011;62304;47.662;18.324;2022-09-01T03:09:49;6.93;;;3.42;;
73951;SDS011;62304;47.662;18.324;2022-09-01T03:12:55;7.30;;;4.70;;
73951;SDS011;62304;47.662;18.324;2022-09-01T03:15:58;9.17;;;3.37;;
73951;SDS011;62304;47.662;18.324;2022-09-01T03:19:01;9.65;;;4.10;;
73951;SDS011;62304;47.662;18.324;2022-09-01T03:22:05;7.22;;;3.72;;
73951;SDS011;62304;47.662;18.324;2022-09-01T03:25:08;9.50;;;4.43;;
73951;SDS011;62304;47.662;18.324;2022-09-01T03:28:11;7.07;;;3.47;;
73951;SDS011;62304;47.662;18.324;2022-09-01T03:31:15;5.73;;;3.10;;
73951;SDS011;62304;47.662;18.324;2022-09-01T03:34:20;6.00;;;3.17;;
73951;SDS011;62304;47.662;18.324;2022-09-01T03:37:25;8.00;;;3.15;;
73951;SDS011;62304;47.662;18.324;2022-09-01T03:40:30;9.18;;;3.15;;
73951;SDS011;62304;47.662;18.324;2022-09-01T03:43:35;7.10;;;3.13;;
73951;SDS011;62304;47.662;18.324;2022-09-01T03:46:46;7.17;;;3.37;;
73951;SDS011;62304;47.662;18.324;2022-09-01T03:49:50;7.85;;;3.92;;
73951;SDS011;62304;47.662;18.324;2022-09-01T03:52:55;6.93;;;2.95;;
73951;SDS011;62304;47.662;18.324;2022-09-01T03:56:00;5.40;;;2.90;;
73951;SDS011;62304;47.662;18.324;2022-09-01T03:59:05;11.20;;;3.10;;
73951;SDS011;62304;47.662;18.324;2022-09-01T04:02:11;7.30;;;3.47;;
73951;SDS011;62304;47.662;18.324;2022-09-01T04:05:15;6.22;;;3.05;;
73951;SDS011;62304;47.662;18.324;2022-09-01T04:08:20;7.45;;;3.17;;
73951;SDS011;62304;47.662;18.324;2022-09-01T04:11:34;8.90;;;3.90;;
73951;SDS011;62304;47.662;18.324;2022-09-01T04:14:46;6.77;;;3.20;;
73951;SDS011;62304;47.662;18.324;2022-09-01T04:17:50;7.37;;;3.30;;
73951;SDS011;62304;47.662;18.324;2022-09-01T04:21:11;5.43;;;3.05;;
73951;SDS011;62304;47.662;18.324;2022-09-01T04:24:16;6.37;;;2.90;;
73951;SDS011;62304;47.662;18.324;2022-09-01T04:27:20;7.25;;;3.35;;
73951;SDS011;62304;47.662;18.324;2022-09-01T04:30:26;5.73;;;3.10;;
73951;SDS011;62304;47.662;18.324;2022-09-01T04:33:34;8.47;;;4.47;;
73951;SDS011;62304;47.662;18.324;2022-09-01T04:36:42;6.72;;;3.83;;
73951;SDS011;62304;47.662;18.324;2022-09-01T04:39:49;6.43;;;3.50;;
73951;SDS011;62304;47.662;18.324;2022-09-01T04:42:58;8.82;;;3.80;;
73951;SDS011;62304;47.662;18.324;2022-09-01T04:46:01;5.77;;;3.40;;
73951;SDS011;62304;47.662;18.324;2022-09-01T04:49:05;9.37;;;3.70;;
73951;SDS011;62304;47.662;18.324;2022-09-01T04:52:14;7.05;;;3.70;;
73951;SDS011;62304;47.662;18.324;2022-09-01T04:55:18;6.57;;;3.78;;
73951;SDS011;62304;47.662;18.324;2022-09-01T04:58:23;8.13;;;3.80;;
73951;SDS011;62304;47.662;18.324;2022-09-01T05:01:27;7.87;;;4.43;;
73951;SDS011;62304;47.662;18.324;2022-09-01T05:04:31;11.23;;;4.00;;
73951;SDS011;62304;47.662;18.324;2022-09-01T05:07:35;9.05;;;3.95;;
73951;SDS011;62304;47.662;18.324;2022-09-01T05:10:40;8.32;;;3.90;;
73951;SDS011;62304;47.662;18.324;2022-09-01T05:13:47;7.05;;;3.80;;
73951;SDS011;62304;47.662;18.324;2022-09-01T05:16:54;6.67;;;3.80;;
73951;SDS011;62304;47.662;18.324;2022-09-01T05:20:01;9.53;;;4.63;;
73951;SDS011;62304;47.662;18.324;2022-09-01T05:23:04;8.70;;;6.45;;
73951;SDS011;62304;47.662;18.324;2022-09-01T05:26:18;11.82;;;5.35;;
73951;SDS011;62304;47.662;18.324;2022-09-01T05:29:23;9.07;;;4.62;;
73951;SDS011;62304;47.662;18.324;2022-09-01T05:32:29;6.43;;;4.27;;
73951;SDS011;62304;47.662;18.324;2022-09-01T05:35:33;7.40;;;4.60;;
73951;SDS011;62304;47.662;18.324;2022-09-01T05:38:37;7.40;;;4.47;;
73951;SDS011;62304;47.662;18.324;2022-09-01T05:41:42;7.60;;;3.92;;
73951;SDS011;62304;47.662;18.324;2022-09-01T05:44:45;7.20;;;3.58;;
73951;SDS011;62304;47.662;18.324;2022-09-01T05:47:53;7.33;;;4.33;;
73951;SDS011;62304;47.662;18.324;2022-09-01T05:50:57;9.17;;;4.27;;
73951;SDS011;62304;47.662;18.324;2022-09-01T05:54:02;7.05;;;4.18;;
73951;SDS011;62304;47.662;18.324;2022-09-01T05:57:08;7.32;;;3.72;;
73951;SDS011;62304;47.662;18.324;2022-09-01T06:00:32;7.50;;;4.12;;
73951;SDS011;62304;47.662;18.324;2022-09-01T06:03:38;7.77;;;3.87;;
73951;SDS011;62304;47.662;18.324;2022-09-01T06:06:43;6.30;;;3.50;;
73951;SDS011;62304;47.662;18.324;2022-09-01T06:10:08;6.43;;;3.75;;
73951;SDS011;62304;47.662;18.324;2022-09-01T06:13:11;7.43;;;3.60;;
73951;SDS011;62304;47.662;18.324;2022-09-01T06:16:17;6.40;;;3.75;;
73951;SDS011;62304;47.662;18.324;2022-09-01T06:19:21;6.40;;;3.20;;
73951;SDS011;62304;47.662;18.324;2022-09-01T06:22:25;5.97;;;3.83;;
73951;SDS011;62304;47.662;18.324;2022-09-01T06:25:29;5.68;;;3.50;;
73951;SDS011;62304;47.662;18.324;2022-09-01T06:28:32;7.90;;;4.57;;
73951;SDS011;62304;47.662;18.324;2022-09-01T06:31:36;7.62;;;3.60;;
73951;SDS011;62304;47.662;18.324;2022-09-01T06:34:42;7.57;;;3.57;;
73951;SDS011;62304;47.662;18.324;2022-09-01T06:37:45;7.53;;;3.53;;
73951;SDS011;62304;47.662;18.324;2022-09-01T06:40:58;6.93;;;3.08;;
73951;SDS011;62304;47.662;18.324;2022-09-01T06:44:02;6.00;;;2.95;;
73951;SDS011;62304;47.662;18.324;2022-09-01T06:47:06;4.53;;;2.30;;
73951;SDS011;62304;47.662;18.324;2022-09-01T06:50:12;5.73;;;2.67;;
73951;SDS011;62304;47.662;18.324;2022-09-01T06:53:40;6.53;;;2.47;;
73951;SDS011;62304;47.662;18.324;2022-09-01T06:56:45;5.70;;;2.42;;
73951;SDS011;62304;47.662;18.324;2022-09-01T07:00:09;5.57;;;2.60;;
73951;SDS011;62304;47.662;18.324;2022-09-01T07:03:22;4.62;;;2.30;;
73951;SDS011;62304;47.662;18.324;2022-09-01T07:06:28;6.30;;;2.77;;
73951;SDS011;62304;47.662;18.324;2022-09-01T07:09:52;7.67;;;2.50;;
73951;SDS011;62304;47.662;18.324;2022-09-01T07:13:17;7.43;;;2.30;;
73951;SDS011;62304;47.662;18.324;2022-09-01T07:16:25;8.23;;;3.10;;
73951;SDS011;62304;47.662;18.324;2022-09-01T07:19:36;12.32;;;2.10;;
73951;SDS011;62304;47.662;18.324;2022-09-01T07:22:55;7.83;;;1.90;;
73951;SDS011;62304;47.662;18.324;2022-09-01T07:26:11;4.70;;;1.80;;
73951;SDS011;62304;47.662;18.324;2022-09-01T07:29:28;5.25;;;1.87;;
73951;SDS011;62304;47.662;18.324;2022-09-01T07:32:32;6.00;;;2.15;;
73951;SDS011;62304;47.662;18.324;2022-09-01T07:35:48;5.93;;;1.90;;
73951;SDS011;62304;47.662;18.324;2022-09-01T07:39:16;4.87;;;1.70;;
73951;SDS011;62304;47.662;18.324;2022-09-01T07:42:41;5.67;;;2.10;;
73951;SDS011;62304;47.662;18.324;2022-09-01T07:46:10;4.53;;;2.10;;
73951;SDS011;62304;47.662;18.324;2022-09-01T07:49:34;3.80;;;1.62;;
73951;SDS011;62304;47.662;18.324;2022-09-01T07:52:59;4.62;;;1.80;;
73951;SDS011;62304;47.662;18.324;2022-09-01T07:56:07;3.97;;;1.53;;
73951;SDS011;62304;47.662;18.324;2022-09-01T07:59:12;4.40;;;1.70;;
73951;SDS011;62304;47.662;18.324;2022-09-01T08:02:20;3.65;;;1.83;;
73951;SDS011;62304;47.662;18.324;2022-09-01T08:05:24;5.30;;;1.60;;
73951;SDS011;62304;47.662;18.324;2022-09-01T08:08:29;5.18;;;2.20;;
73951;SDS011;62304;47.662;18.324;2022-09-01T08:11:32;4.77;;;1.40;;
73951;SDS011;62304;47.662;18.324;2022-09-01T08:14:55;4.33;;;1.40;;
73951;SDS011;62304;47.662;18.324;2022-09-01T08:18:19;6.10;;;1.73;;
73951;SDS011;62304;47.662;18.324;2022-09-01T08:21:22;6.12;;;1.65;;
73951;SDS011;62304;47.662;18.324;2022-09-01T08:24:28;4.82;;;1.80;;
73951;SDS011;62304;47.662;18.324;2022-09-01T08:27:32;5.87;;;1.70;;
73951;SDS011;62304;47.662;18.324;2022-09-01T08:30:39;4.50;;;1.50;;
73951;SDS011;62304;47.662;18.324;2022-09-01T08:33:53;3.97;;;1.50;;
73951;SDS011;62304;47.662;18.324;2022-09-01T08:36:57;3.53;;;1.60;;
73951;SDS011;62304;47.662;18.324;2022-09-01T08:39:59;5.50;;;1.90;;
73951;SDS011;62304;47.662;18.324;2022-09-01T08:46:27;4.07;;;1.33;;
73951;SDS011;62304;47.662;18.324;2022-09-01T08:49:37;5.40;;;1.83;;
73951;SDS011;62304;47.662;18.324;2022-09-01T08:52:49;4.35;;;1.35;;
73951;SDS011;62304;47.662;18.324;2022-09-01T08:56:11;4.05;;;1.48;;
73951;SDS011;62304;47.662;18.324;2022-09-01T08:59:15;5.00;;;1.63;;
73951;SDS011;62304;47.662;18.324;2022-09-01T09:06:08;4.62;;;1.60;;
73951;SDS011;62304;47.662;18.324;2022-09-01T09:09:34;4.80;;;2.17;;
73951;SDS011;62304;47.662;18.324;2022-09-01T09:13:00;9.00;;;2.58;;
73951;SDS011;62304;47.662;18.324;2022-09-01T09:19:54;5.33;;;1.60;;
73951;SDS011;62304;47.662;18.324;2022-09-01T09:22:57;5.40;;;1.70;;
73951;SDS011;62304;47.662;18.324;2022-09-01T09:26:11;4.65;;;2.50;;
73951;SDS011;62304;47.662;18.324;2022-09-01T09:29:18;3.90;;;2.00;;
73951;SDS011;62304;47.662;18.324;2022-09-01T09:36:14;8.43;;;2.07;;
73951;SDS011;62304;47.662;18.324;2022-09-01T09:39:26;3.42;;;1.10;;
73951;SDS011;62304;47.662;18.324;2022-09-01T09:42:31;5.53;;;1.77;;
73951;SDS011;62304;47.662;18.324;2022-09-01T09:45:38;3.67;;;1.60;;
73951;SDS011;62304;47.662;18.324;2022-09-01T09:48:43;5.78;;;1.58;;
73951;SDS011;62304;47.662;18.324;2022-09-01T09:51:48;8.18;;;1.80;;
73951;SDS011;62304;47.662;18.324;2022-09-01T09:55:17;3.22;;;1.50;;
73951;SDS011;62304;47.662;18.324;2022-09-01T09:58:28;5.37;;;1.90;;
73951;SDS011;62304;47.662;18.324;2022-09-01T10:01:44;3.60;;;1.90;;
73951;SDS011;62304;47.662;18.324;2022-09-01T10:04:47;4.82;;;2.00;;
73951;SDS011;62304;47.662;18.324;2022-09-01T10:07:56;4.97;;;2.15;;
73951;SDS011;62304;47.662;18.324;2022-09-01T10:11:00;9.00;;;2.15;;
73951;SDS011;62304;47.662;18.324;2022-09-01T10:14:22;8.27;;;2.37;;
73951;SDS011;62304;47.662;18.324;2022-09-01T10:17:49;7.13;;;2.10;;
73951;SDS011;62304;47.662;18.324;2022-09-01T10:21:15;5.53;;;1.90;;
73951;SDS011;62304;47.662;18.324;2022-09-01T10:24:35;4.25;;;2.08;;
73951;SDS011;62304;47.662;18.324;2022-09-01T10:27:48;5.37;;;2.05;;
73951;SDS011;62304;47.662;18.324;2022-09-01T10:30:56;4.45;;;1.58;;
73951;SDS011;62304;47.662;18.324;2022-09-01T10:34:02;4.83;;;1.70;;
73951;SDS011;62304;47.662;18.324;2022-09-01T10:37:10;3.62;;;1.40;;
73951;SDS011;62304;47.662;18.324;2022-09-01T10:40:19;4.82;;;1.90;;
73951;SDS011;62304;47.662;18.324;2022-09-01T10:46:42;4.67;;;1.67;;
73951;SDS011;62304;47.662;18.324;2022-09-01T10:52:57;4.65;;;1.65;;
73951;SDS011;62304;47.662;18.324;2022-09-01T10:56:05;5.55;;;2.03;;
73951;SDS011;62304;47.662;18.324;2022-09-01T10:59:25;4.80;;;1.50;;
73951;SDS011;62304;47.662;18.324;2022-09-01T11:02:33;5.30;;;1.53;;
73951;SDS011;62304;47.662;18.324;2022-09-01T11:09:23;5.22;;;1.58;;
73951;SDS011;62304;47.662;18.324;2022-09-01T11:15:48;3.83;;;1.80;;
73951;SDS011;62304;47.662;18.324;2022-09-01T11:18:52;3.83;;;1.90;;
73951;SDS011;62304;47.662;18.324;2022-09-01T11:22:08;3.28;;;1.62;;
73951;SDS011;62304;47.662;18.324;2022-09-01T11:29:48;4.68;;;1.87;;
73951;SDS011;62304;47.662;18.324;2022-09-01T11:32:56;5.40;;;1.70;;
73951;SDS011;62304;47.662;18.324;2022-09-01T11:36:06;4.37;;;1.83;;
73951;SDS011;62304;47.662;18.324;2022-09-01T11:42:23;3.92;;;2.10;;
73951;SDS011;62304;47.662;18.324;2022-09-01T11:45:30;4.85;;;1.90;;
73951;SDS011;62304;47.662;18.324;2022-09-01T11:48:37;6.50;;;2.60;;
73951;SDS011;62304;47.662;18.324;2022-09-01T11:51:43;5.15;;;2.50;;
73951;SDS011;62304;47.662;18.324;2022-09-01T11:54:49;5.65;;;2.67;;
73951;SDS011;62304;47.662;18.324;2022-09-01T11:57:52;4.95;;;2.60;;
73951;SDS011;62304;47.662;18.324;2022-09-01T12:00:56;6.55;;;2.87;;
73951;SDS011;62304;47.662;18.324;2022-09-01T12:04:23;6.80;;;2.70;;
73951;SDS011;62304;47.662;18.324;2022-09-01T12:09:00;5.65;;;2.70;;
73951;SDS011;62304;47.662;18.324;2022-09-01T12:12:07;4.60;;;2.70;;
73951;SDS011;62304;47.662;18.324;2022-09-01T12:15:30;6.62;;;3.15;;
73951;SDS011;62304;47.662;18.324;2022-09-01T12:18:48;5.90;;;2.63;;
73951;SDS011;62304;47.662;18.324;2022-09-01T12:22:01;5.87;;;2.80;;
73951;SDS011;62304;47.662;18.324;2022-09-01T12:25:25;5.28;;;2.60;;
73951;SDS011;62304;47.662;18.324;2022-09-01T12:28:30;4.90;;;2.37;;
73951;SDS011;62304;47.662;18.324;2022-09-01T12:31:36;8.13;;;2.87;;
73951;SDS011;62304;47.662;18.324;2022-09-01T12:34:45;5.73;;;2.30;;
73951;SDS011;62304;47.662;18.324;2022-09-01T12:38:22;4.73;;;2.47;;
73951;SDS011;62304;47.662;18.324;2022-09-01T12:41:36;5.90;;;2.58;;
73951;SDS011;62304;47.662;18.324;2022-09-01T12:45:04;5.85;;;2.50;;
73951;SDS011;62304;47.662;18.324;2022-09-01T12:48:06;4.62;;;2.53;;
73951;SDS011;62304;47.662;18.324;2022-09-01T12:51:22;5.43;;;2.53;;
73951;SDS011;62304;47.662;18.324;2022-09-01T12:54:32;4.37;;;2.60;;
73951;SDS011;62304;47.662;18.324;2022-09-01T12:57:39;4.43;;;2.40;;
73951;SDS011;62304;47.662;18.324;2022-09-01T13:00:55;4.10;;;2.50;;
73951;SDS011;62304;47.662;18.324;2022-09-01T13:07:26;5.83;;;2.73;;
73951;SDS011;62304;47.662;18.324;2022-09-01T13:10:30;5.73;;;2.30;;
73951;SDS011;62304;47.662;18.324;2022-09-01T13:13:39;5.70;;;2.20;;
73951;SDS011;62304;47.662;18.324;2022-09-01T13:16:44;4.72;;;2.20;;
73951;SDS011;62304;47.662;18.324;2022-09-01T13:19:47;5.37;;;2.47;;
73951;SDS011;62304;47.662;18.324;2022-09-01T13:22:50;4.80;;;2.40;;
73951;SDS011;62304;47.662;18.324;2022-09-01T13:25:55;4.50;;;2.10;;
73951;SDS011;62304;47.662;18.324;2022-09-01T13:29:00;5.43;;;2.30;;
73951;SDS011;62304;47.662;18.324;2022-09-01T13:32:03;4.47;;;2.37;;
73951;SDS011;62304;47.662;18.324;2022-09-01T13:35:23;4.62;;;2.50;;
73951;SDS011;62304;47.662;18.324;2022-09-01T13:38:27;5.30;;;2.80;;
73951;SDS011;62304;47.662;18.324;2022-09-01T13:41:33;4.37;;;2.20;;
73951;SDS011;62304;47.662;18.324;2022-09-01T13:44:36;5.45;;;2.45;;
73951;SDS011;62304;47.662;18.324;2022-09-01T13:47:43;4.93;;;2.78;;
73951;SDS011;62304;47.662;18.324;2022-09-01T13:51:07;4.62;;;2.80;;
73951;SDS011;62304;47.662;18.324;2022-09-01T13:54:17;5.30;;;2.47;;
73951;SDS011;62304;47.662;18.324;2022-09-01T13:57:20;3.90;;;2.57;;
73951;SDS011;62304;47.662;18.324;2022-09-01T14:00:25;6.18;;;2.78;;
73951;SDS011;62304;47.662;18.324;2022-09-01T14:03:33;4.60;;;2.50;;
73951;SDS011;62304;47.662;18.324;2022-09-01T14:06:39;4.85;;;2.80;;
73951;SDS011;62304;47.662;18.324;2022-09-01T14:09:45;4.80;;;2.83;;
73951;SDS011;62304;47.662;18.324;2022-09-01T14:12:48;5.73;;;2.60;;
73951;SDS011;62304;47.662;18.324;2022-09-01T14:15:52;5.80;;;2.65;;
73951;SDS011;62304;47.662;18.324;2022-09-01T14:18:55;5.80;;;2.67;;
73951;SDS011;62304;47.662;18.324;2022-09-01T14:21:58;5.35;;;2.75;;
73951;SDS011;62304;47.662;18.324;2022-09-01T14:25:01;6.00;;;2.97;;
73951;SDS011;62304;47.662;18.324;2022-09-01T14:28:04;5.73;;;2.70;;
73951;SDS011;62304;47.662;18.324;2022-09-01T14:31:09;4.43;;;2.87;;
73951;SDS011;62304;47.662;18.324;2022-09-01T14:34:13;4.07;;;2.45;;
73951;SDS011;62304;47.662;18.324;2022-09-01T14:37:17;4.37;;;2.75;;
73951;SDS011;62304;47.662;18.324;2022-09-01T14:40:20;5.93;;;3.00;;
73951;SDS011;62304;47.662;18.324;2022-09-01T14:43:25;4.63;;;2.80;;
73951;SDS011;62304;47.662;18.324;2022-09-01T14:46:29;5.35;;;2.62;;
73951;SDS011;62304;47.662;18.324;2022-09-01T14:49:36;5.82;;;2.55;;
73951;SDS011;62304;47.662;18.324;2022-09-01T14:52:39;7.20;;;3.03;;
73951;SDS011;62304;47.662;18.324;2022-09-01T14:55:42;4.37;;;2.60;;
73951;SDS011;62304;47.662;18.324;2022-09-01T14:58:46;5.10;;;2.80;;
73951;SDS011;62304;47.662;18.324;2022-09-01T15:01:49;4.87;;;2.65;;
73951;SDS011;62304;47.662;18.324;2022-09-01T15:04:52;4.65;;;2.58;;
73951;SDS011;62304;47.662;18.324;2022-09-01T15:07:55;4.85;;;2.83;;
73951;SDS011;62304;47.662;18.324;2022-09-01T15:11:00;5.07;;;2.50;;
73951;SDS011;62304;47.662;18.324;2022-09-01T15:14:02;4.53;;;2.43;;
73951;SDS011;62304;47.662;18.324;2022-09-01T15:17:05;4.93;;;2.47;;
73951;SDS011;62304;47.662;18.324;2022-09-01T15:20:08;4.10;;;2.58;;
73951;SDS011;62304;47.662;18.324;2022-09-01T15:23:33;5.25;;;2.50;;
73951;SDS011;62304;47.662;18.324;2022-09-01T15:26:36;4.93;;;2.70;;
73951;SDS011;62304;47.662;18.324;2022-09-01T15:29:40;4.67;;;2.40;;
73951;SDS011;62304;47.662;18.324;2022-09-01T15:32:50;6.15;;;2.28;;
73951;SDS011;62304;47.662;18.324;2022-09-01T15:35:55;6.32;;;2.92;;
73951;SDS011;62304;47.662;18.324;2022-09-01T15:38:58;4.07;;;2.40;;
73951;SDS011;62304;47.662;18.324;2022-09-01T15:42:01;5.93;;;2.80;;
73951;SDS011;62304;47.662;18.324;2022-09-01T15:45:06;6.33;;;2.30;;
73951;SDS011;62304;47.662;18.324;2022-09-01T15:48:12;4.65;;;2.47;;
73951;SDS011;62304;47.662;18.324;2022-09-01T15:54:24;4.07;;;2.33;;
73951;SDS011;62304;47.662;18.324;2022-09-01T15:57:31;7.13;;;2.63;;
73951;SDS011;62304;47.662;18.324;2022-09-01T16:00:35;4.80;;;2.80;;
73951;SDS011;62304;47.662;18.324;2022-09-01T16:03:39;4.45;;;2.80;;
73951;SDS011;62304;47.662;18.324;2022-09-01T16:06:42;4.35;;;2.30;;
73951;SDS011;62304;47.662;18.324;2022-09-01T16:09:46;7.75;;;2.80;;
73951;SDS011;62304;47.662;18.324;2022-09-01T16:12:49;5.70;;;2.60;;
73951;SDS011;62304;47.662;18.324;2022-09-01T16:22:51;5.47;;;2.50;;
73951;SDS011;62304;47.662;18.324;2022-09-01T16:25:58;5.18;;;2.25;;
73951;SDS011;62304;47.662;18.324;2022-09-01T16:29:07;7.10;;;2.30;;
73951;SDS011;62304;47.662;18.324;2022-09-01T16:32:15;4.97;;;2.50;;
73951;SDS011;62304;47.662;18.324;2022-09-01T16:35:18;4.00;;;2.40;;
73951;SDS011;62304;47.662;18.324;2022-09-01T16:38:33;4.12;;;2.30;;
73951;SDS011;62304;47.662;18.324;2022-09-01T16:48:02;5.23;;;2.63;;
73951;SDS011;62304;47.662;18.324;2022-09-01T16:58:18;9.65;;;3.05;;
73951;SDS011;62304;47.662;18.324;2022-09-01T17:04:48;5.70;;;2.47;;
73951;SDS011;62304;47.662;18.324;2022-09-01T17:08:43;7.30;;;2.87;;
73951;SDS011;62304;47.662;18.324;2022-09-01T17:12:13;5.53;;;2.78;;
73951;SDS011;62304;47.662;18.324;2022-09-01T17:15:02;7.53;;;3.00;;
73951;SDS011;62304;47.662;18.324;2022-09-01T17:18:20;8.37;;;2.90;;
73951;SDS011;62304;47.662;18.324;2022-09-01T17:21:36;11.47;;;4.00;;
73951;SDS011;62304;47.662;18.324;2022-09-01T17:25:08;9.45;;;3.42;;
73951;SDS011;62304;47.662;18.324;2022-09-01T17:28:44;5.72;;;3.30;;
73951;SDS011;62304;47.662;18.324;2022-09-01T17:41:57;7.12;;;3.35;;
73951;SDS011;62304;47.662;18.324;2022-09-01T17:45:13;9.35;;;3.33;;
73951;SDS011;62304;47.662;18.324;2022-09-01T17:48:37;9.18;;;3.10;;
73951;SDS011;62304;47.662;18.324;2022-09-01T18:01:56;8.13;;;3.58;;
73951;SDS011;62304;47.662;18.324;2022-09-01T18:11:35;6.80;;;3.10;;
73951;SDS011;62304;47.662;18.324;2022-09-01T18:21:29;7.62;;;3.28;;
73951;SDS011;62304;47.662;18.324;2022-09-01T18:28:00;5.80;;;3.03;;
73951;SDS011;62304;47.662;18.324;2022-09-01T18:34:23;6.15;;;3.05;;
73951;SDS011;62304;47.662;18.324;2022-09-01T18:40:55;8.37;;;3.03;;
73951;SDS011;62304;47.662;18.324;2022-09-01T18:48:24;6.55;;;2.87;;
73951;SDS011;62304;47.662;18.324;2022-09-01T18:51:13;5.55;;;2.55;;
73951;SDS011;62304;47.662;18.324;2022-09-01T18:54:38;6.35;;;2.90;;
73951;SDS011;62304;47.662;18.324;2022-09-01T18:57:54;8.50;;;3.33;;
73951;SDS011;62304;47.662;18.324;2022-09-01T19:01:03;6.17;;;2.90;;
73951;SDS011;62304;47.662;18.324;2022-09-01T19:04:27;4.53;;;2.87;;
73951;SDS011;62304;47.662;18.324;2022-09-01T19:11:25;6.28;;;3.10;;
73951;SDS011;62304;47.662;18.324;2022-09-01T19:24:20;7.07;;;2.72;;
73951;SDS011;62304;47.662;18.324;2022-09-01T19:27:37;6.87;;;2.97;;
73951;SDS011;62304;47.662;18.324;2022-09-01T19:30:47;6.47;;;3.13;;
73951;SDS011;62304;47.662;18.324;2022-09-01T19:33:57;5.60;;;3.20;;
73951;SDS011;62304;47.662;18.324;2022-09-01T19:37:03;6.43;;;3.00;;
73951;SDS011;62304;47.662;18.324;2022-09-01T19:40:07;6.30;;;2.83;;
73951;SDS011;62304;47.662;18.324;2022-09-01T19:43:12;5.05;;;2.67;;
73951;SDS011;62304;47.662;18.324;2022-09-01T19:46:30;7.57;;;3.20;;
73951;SDS011;62304;47.662;18.324;2022-09-01T19:49:45;13.90;;;3.50;;
73951;SDS011;62304;47.662;18.324;2022-09-01T19:52:57;9.88;;;3.20;;
73951;SDS011;62304;47.662;18.324;2022-09-01T19:59:30;9.15;;;4.22;;
73951;SDS011;62304;47.662;18.324;2022-09-01T20:02:50;11.83;;;5.10;;
73951;SDS011;62304;47.662;18.324;2022-09-01T20:06:06;6.83;;;4.10;;
73951;SDS011;62304;47.662;18.324;2022-09-01T20:09:36;8.65;;;4.40;;
73951;SDS011;62304;47.662;18.324;2022-09-01T20:12:51;9.70;;;4.43;;
73951;SDS011;62304;47.662;18.324;2022-09-01T20:19:14;8.13;;;4.33;;
73951;SDS011;62304;47.662;18.324;2022-09-01T20:22:24;8.00;;;4.67;;
73951;SDS011;62304;47.662;18.324;2022-09-01T20:25:51;8.00;;;3.92;;
73951;SDS011;62304;47.662;18.324;2022-09-01T20:32:50;8.53;;;4.60;;
73951;SDS011;62304;47.662;18.324;2022-09-01T20:46:24;10.77;;;5.67;;
73951;SDS011;62304;47.662;18.324;2022-09-01T20:49:28;11.60;;;4.83;;
73951;SDS011;62304;47.662;18.324;2022-09-01T20:59:44;5.78;;;3.03;;
73951;SDS011;62304;47.662;18.324;2022-09-01T21:10:16;8.85;;;2.53;;
73951;SDS011;62304;47.662;18.324;2022-09-01T21:23:33;7.87;;;2.60;;
73951;SDS011;62304;47.662;18.324;2022-09-01T21:26:36;6.10;;;2.40;;
73951;SDS011;62304;47.662;18.324;2022-09-01T21:29:54;7.15;;;2.92;;
73951;SDS011;62304;47.662;18.324;2022-09-01T21:33:01;8.50;;;2.33;;
73951;SDS011;62304;47.662;18.324;2022-09-01T21:36:05;4.60;;;2.40;;